JST978 YBCS-YPPH
Flight info
| Callsign | JST978 |
|---|---|
| Flight time | N/A |
| Altitude | 36000 |
| Route | NONUM J64 MA DCT GAFER DCT BAISH DCT ANGAS DCT BUNNY Q41 MALUP Q158 KABLI |
| Aircraft | A320/M-SDE3FGHIRWY/LB1 |
Departure
| Time | N/A |
|---|---|
| Airport | Cairns International Airport (YBCS) |
Arrival
| Time | 2026-04-29 02:50 |
|---|---|
| Airport | Perth International Airport (YPPH) |
| Time | Latitude | Longitude | Altitude | Speed | Heading |
|---|---|---|---|---|---|
| 2026-04-29 01:54 | -30.65634 | 121.70623 | 34078 ft | 404 kts | 240° |
| 2026-04-29 01:54 | -30.67101 | 121.67843 | 34078 ft | 404 kts | 240° |
| 2026-04-29 01:55 | -30.70029 | 121.62291 | 34078 ft | 403 kts | 240° |
| 2026-04-29 01:55 | -30.72964 | 121.56725 | 34081 ft | 403 kts | 240° |
| 2026-04-29 01:56 | -30.75885 | 121.51172 | 34081 ft | 402 kts | 240° |
| 2026-04-29 01:56 | -30.78802 | 121.45621 | 34082 ft | 402 kts | 240° |
| 2026-04-29 01:57 | -30.81723 | 121.40084 | 34077 ft | 402 kts | 240° |
| 2026-04-29 01:57 | -30.84642 | 121.34539 | 34076 ft | 402 kts | 240° |
| 2026-04-29 01:58 | -30.87561 | 121.28995 | 34073 ft | 401 kts | 240° |
| 2026-04-29 01:58 | -30.90474 | 121.23449 | 34069 ft | 401 kts | 240° |
| 2026-04-29 01:59 | -30.93380 | 121.17901 | 34065 ft | 401 kts | 240° |
| 2026-04-29 01:59 | -30.94833 | 121.15123 | 34243 ft | 401 kts | 240° |
| 2026-04-29 01:59 | -30.96261 | 121.12390 | 34626 ft | 399 kts | 240° |
| 2026-04-29 02:00 | -30.97704 | 121.09629 | 34949 ft | 399 kts | 240° |
| 2026-04-29 02:00 | -30.99149 | 121.06866 | 35032 ft | 399 kts | 240° |
| 2026-04-29 02:00 | -31.02037 | 121.01349 | 35044 ft | 398 kts | 240° |
| 2026-04-29 02:01 | -31.04909 | 120.95838 | 35042 ft | 398 kts | 240° |
| 2026-04-29 02:01 | -31.07778 | 120.90320 | 35048 ft | 398 kts | 240° |
| 2026-04-29 02:02 | -31.10652 | 120.84799 | 35048 ft | 397 kts | 240° |
| 2026-04-29 02:02 | -31.13521 | 120.79290 | 35056 ft | 398 kts | 240° |
| 2026-04-29 02:03 | -31.16382 | 120.73762 | 35062 ft | 398 kts | 240° |
| 2026-04-29 02:03 | -31.19244 | 120.68231 | 35069 ft | 398 kts | 240° |
| 2026-04-29 02:04 | -31.22106 | 120.62699 | 35066 ft | 398 kts | 240° |
| 2026-04-29 02:04 | -31.24955 | 120.57171 | 35073 ft | 397 kts | 240° |
| 2026-04-29 02:05 | -31.27800 | 120.51645 | 35075 ft | 396 kts | 240° |
| 2026-04-29 02:05 | -31.30633 | 120.46129 | 35086 ft | 395 kts | 242° |
| 2026-04-29 02:06 | -31.32932 | 120.40296 | 35082 ft | 395 kts | 246° |
| 2026-04-29 02:06 | -31.35168 | 120.34423 | 35079 ft | 395 kts | 246° |
| 2026-04-29 02:07 | -31.37404 | 120.28549 | 35079 ft | 395 kts | 246° |
| 2026-04-29 02:07 | -31.39632 | 120.22673 | 35077 ft | 395 kts | 246° |
| 2026-04-29 02:08 | -31.41840 | 120.16835 | 35079 ft | 395 kts | 246° |
| 2026-04-29 02:08 | -31.44057 | 120.10961 | 35079 ft | 394 kts | 246° |
| 2026-04-29 02:09 | -31.46275 | 120.05092 | 35080 ft | 394 kts | 246° |
| 2026-04-29 02:09 | -31.48491 | 119.99228 | 35078 ft | 393 kts | 246° |
| 2026-04-29 02:10 | -31.50699 | 119.93367 | 35079 ft | 393 kts | 246° |
| 2026-04-29 02:10 | -31.52898 | 119.87506 | 35082 ft | 393 kts | 246° |
| 2026-04-29 02:11 | -31.55094 | 119.81648 | 35082 ft | 392 kts | 246° |
| 2026-04-29 02:11 | -31.57282 | 119.75790 | 35082 ft | 392 kts | 246° |
| 2026-04-29 02:12 | -31.59470 | 119.69938 | 35082 ft | 392 kts | 246° |
| 2026-04-29 02:12 | -31.61646 | 119.64083 | 35078 ft | 391 kts | 247° |
| 2026-04-29 02:13 | -31.63817 | 119.58236 | 35077 ft | 391 kts | 246° |
| 2026-04-29 02:13 | -31.65993 | 119.52394 | 35076 ft | 391 kts | 246° |
| 2026-04-29 02:14 | -31.68167 | 119.46527 | 35075 ft | 391 kts | 247° |
| 2026-04-29 02:14 | -31.70333 | 119.40672 | 35077 ft | 391 kts | 247° |
| 2026-04-29 02:15 | -31.72490 | 119.34822 | 35076 ft | 391 kts | 247° |
| 2026-04-29 02:15 | -31.74652 | 119.28966 | 35074 ft | 391 kts | 247° |
| 2026-04-29 02:16 | -31.76813 | 119.23101 | 35079 ft | 391 kts | 247° |
| 2026-04-29 02:16 | -31.78954 | 119.17279 | 35073 ft | 391 kts | 247° |
| 2026-04-29 02:17 | -31.81104 | 119.11414 | 35074 ft | 391 kts | 247° |
| 2026-04-29 02:17 | -31.83250 | 119.05555 | 35074 ft | 390 kts | 248° |
| 2026-04-29 02:18 | -31.85398 | 118.99682 | 35074 ft | 390 kts | 248° |
| 2026-04-29 02:18 | -31.87554 | 118.93772 | 35077 ft | 390 kts | 248° |
| 2026-04-29 02:19 | -31.89676 | 118.87934 | 35078 ft | 391 kts | 248° |
| 2026-04-29 02:19 | -31.91815 | 118.82055 | 35076 ft | 391 kts | 248° |
| 2026-04-29 02:20 | -31.93954 | 118.76181 | 35077 ft | 391 kts | 248° |
| 2026-04-29 02:20 | -31.96091 | 118.70288 | 35078 ft | 391 kts | 248° |
| 2026-04-29 02:21 | -31.98216 | 118.64400 | 35073 ft | 391 kts | 248° |
| 2026-04-29 02:21 | -32.00344 | 118.58502 | 35075 ft | 391 kts | 248° |
| 2026-04-29 02:22 | -32.02476 | 118.52599 | 35076 ft | 391 kts | 248° |
| 2026-04-29 02:22 | -32.04604 | 118.46690 | 35077 ft | 392 kts | 248° |
| 2026-04-29 02:23 | -32.06723 | 118.40772 | 35078 ft | 392 kts | 248° |
| 2026-04-29 02:23 | -32.08932 | 118.34893 | 35082 ft | 392 kts | 246° |
| 2026-04-29 02:24 | -32.10891 | 118.30070 | 35081 ft | 393 kts | 246° |
| 2026-04-29 02:25 | -32.14435 | 118.21345 | 35082 ft | 393 kts | 246° |
| 2026-04-29 02:25 | -32.16747 | 118.15502 | 35084 ft | 393 kts | 247° |
| 2026-04-29 02:26 | -32.19056 | 118.09662 | 35085 ft | 393 kts | 246° |
| 2026-04-29 02:26 | -32.21374 | 118.03817 | 35087 ft | 393 kts | 246° |
| 2026-04-29 02:27 | -32.23694 | 117.97968 | 35086 ft | 393 kts | 247° |
| 2026-04-29 02:27 | -32.26010 | 117.92106 | 35089 ft | 393 kts | 247° |
| 2026-04-29 02:28 | -32.28313 | 117.86242 | 35086 ft | 393 kts | 247° |
| 2026-04-29 02:28 | -32.30620 | 117.80382 | 35090 ft | 394 kts | 247° |
| 2026-04-29 02:29 | -32.32931 | 117.74504 | 35090 ft | 394 kts | 247° |
| 2026-04-29 02:29 | -32.35045 | 117.68616 | 35070 ft | 382 kts | 256° |
| 2026-04-29 02:30 | -32.35452 | 117.62429 | 35073 ft | 380 kts | 275° |
| 2026-04-29 02:30 | -32.34187 | 117.56368 | 35072 ft | 383 kts | 282° |
| 2026-04-29 02:31 | -32.32731 | 117.50308 | 35071 ft | 383 kts | 282° |
| 2026-04-29 02:31 | -32.32008 | 117.47278 | 34864 ft | 381 kts | 282° |
| 2026-04-29 02:31 | -32.31282 | 117.44253 | 33442 ft | 389 kts | 283° |
| 2026-04-29 02:31 | -32.30524 | 117.41117 | 31649 ft | 404 kts | 283° |
| 2026-04-29 02:32 | -32.29737 | 117.37869 | 29865 ft | 418 kts | 284° |
| 2026-04-29 02:32 | -32.28924 | 117.34523 | 27979 ft | 428 kts | 284° |
| 2026-04-29 02:32 | -32.28097 | 117.31132 | 26417 ft | 430 kts | 285° |
| 2026-04-29 02:32 | -32.27269 | 117.27738 | 25056 ft | 429 kts | 285° |
| 2026-04-29 02:33 | -32.26445 | 117.24361 | 23813 ft | 426 kts | 285° |
| 2026-04-29 02:33 | -32.25629 | 117.21006 | 22440 ft | 423 kts | 285° |
| 2026-04-29 02:33 | -32.24823 | 117.17691 | 21393 ft | 415 kts | 285° |
| 2026-04-29 02:33 | -32.24034 | 117.14458 | 20977 ft | 405 kts | 285° |
| 2026-04-29 02:34 | -32.23258 | 117.11282 | 20447 ft | 400 kts | 285° |
| 2026-04-29 02:34 | -32.22493 | 117.08146 | 19922 ft | 395 kts | 285° |
| 2026-04-29 02:34 | -32.21737 | 117.05042 | 19415 ft | 391 kts | 285° |
| 2026-04-29 02:34 | -32.20987 | 117.01965 | 18917 ft | 388 kts | 285° |
| 2026-04-29 02:35 | -32.20239 | 116.98912 | 18404 ft | 386 kts | 285° |
| 2026-04-29 02:35 | -32.19495 | 116.95891 | 17848 ft | 382 kts | 285° |
| 2026-04-29 02:35 | -32.18758 | 116.92897 | 17346 ft | 378 kts | 286° |
| 2026-04-29 02:35 | -32.17801 | 116.90033 | 16831 ft | 374 kts | 297° |
| 2026-04-29 02:36 | -32.16380 | 116.87474 | 16244 ft | 373 kts | 307° |
| 2026-04-29 02:36 | -32.14781 | 116.85078 | 15680 ft | 370 kts | 307° |
| 2026-04-29 02:36 | -32.13197 | 116.82690 | 15102 ft | 369 kts | 307° |
| 2026-04-29 02:36 | -32.11624 | 116.80311 | 14519 ft | 367 kts | 307° |
| 2026-04-29 02:37 | -32.10056 | 116.77942 | 13929 ft | 366 kts | 307° |
| 2026-04-29 02:37 | -32.08510 | 116.75613 | 13290 ft | 365 kts | 307° |
| 2026-04-29 02:37 | -32.06933 | 116.73236 | 12692 ft | 362 kts | 307° |
| 2026-04-29 02:37 | -32.05409 | 116.70940 | 12111 ft | 359 kts | 307° |
| 2026-04-29 02:38 | -32.03876 | 116.68631 | 11523 ft | 357 kts | 307° |
| 2026-04-29 02:38 | -32.02351 | 116.66338 | 10941 ft | 354 kts | 307° |
| 2026-04-29 02:38 | -32.00855 | 116.64088 | 10715 ft | 341 kts | 307° |
| 2026-04-29 02:38 | -31.99421 | 116.61936 | 10592 ft | 327 kts | 307° |
| 2026-04-29 02:39 | -31.98044 | 116.59873 | 10468 ft | 314 kts | 307° |
| 2026-04-29 02:39 | -31.96723 | 116.57892 | 10350 ft | 303 kts | 307° |
| 2026-04-29 02:39 | -31.95447 | 116.55973 | 10232 ft | 292 kts | 307° |
| 2026-04-29 02:39 | -31.94269 | 116.54068 | 10092 ft | 283 kts | 300° |
| 2026-04-29 02:40 | -31.93268 | 116.52104 | 9861 ft | 279 kts | 300° |
| 2026-04-29 02:40 | -31.92265 | 116.50140 | 9452 ft | 280 kts | 300° |
| 2026-04-29 02:40 | -31.91264 | 116.48184 | 9081 ft | 279 kts | 300° |
| 2026-04-29 02:40 | -31.90268 | 116.46236 | 8735 ft | 278 kts | 300° |
| 2026-04-29 02:41 | -31.89273 | 116.44290 | 8442 ft | 275 kts | 300° |
| 2026-04-29 02:41 | -31.88288 | 116.42365 | 8114 ft | 274 kts | 300° |
| 2026-04-29 02:41 | -31.87304 | 116.40444 | 7775 ft | 274 kts | 301° |
| 2026-04-29 02:41 | -31.86321 | 116.38530 | 7455 ft | 273 kts | 301° |
| 2026-04-29 02:42 | -31.85341 | 116.36623 | 7141 ft | 272 kts | 301° |
| 2026-04-29 02:42 | -31.84365 | 116.34720 | 6834 ft | 271 kts | 301° |
| 2026-04-29 02:42 | -31.83398 | 116.32836 | 6317 ft | 268 kts | 301° |
| 2026-04-29 02:42 | -31.82573 | 116.31231 | 5889 ft | 265 kts | 301° |
| 2026-04-29 02:43 | -31.81627 | 116.29394 | 5527 ft | 259 kts | 301° |
| 2026-04-29 02:43 | -31.80716 | 116.27625 | 5355 ft | 248 kts | 301° |
| 2026-04-29 02:43 | -31.79833 | 116.25911 | 5224 ft | 242 kts | 301° |
| 2026-04-29 02:43 | -31.79112 | 116.24139 | 5098 ft | 240 kts | 287° |
| 2026-04-29 02:44 | -31.78671 | 116.22244 | 4999 ft | 241 kts | 286° |
| 2026-04-29 02:44 | -31.78233 | 116.20347 | 4834 ft | 240 kts | 286° |
| 2026-04-29 02:44 | -31.77795 | 116.18463 | 4611 ft | 239 kts | 286° |
| 2026-04-29 02:44 | -31.77355 | 116.16577 | 4407 ft | 239 kts | 286° |
| 2026-04-29 02:45 | -31.76913 | 116.14692 | 4195 ft | 239 kts | 286° |
| 2026-04-29 02:45 | -31.76470 | 116.12806 | 3979 ft | 240 kts | 285° |
| 2026-04-29 02:45 | -31.76029 | 116.10925 | 3783 ft | 238 kts | 286° |
| 2026-04-29 02:45 | -31.75683 | 116.09052 | 3590 ft | 233 kts | 272° |
| 2026-04-29 02:46 | -31.75916 | 116.07195 | 3395 ft | 230 kts | 249° |
| 2026-04-29 02:46 | -31.76725 | 116.05609 | 3186 ft | 226 kts | 233° |
| 2026-04-29 02:46 | -31.77675 | 116.04157 | 2990 ft | 221 kts | 233° |
| 2026-04-29 02:46 | -31.78585 | 116.02760 | 2792 ft | 209 kts | 233° |
| 2026-04-29 02:47 | -31.79464 | 116.01436 | 2643 ft | 203 kts | 227° |
| 2026-04-29 02:47 | -31.80562 | 116.00486 | 2498 ft | 190 kts | 204° |
| 2026-04-29 02:47 | -31.81768 | 116.00069 | 2279 ft | 178 kts | 194° |
| 2026-04-29 02:47 | -31.82934 | 115.99732 | 2056 ft | 167 kts | 194° |
| 2026-04-29 02:48 | -31.84030 | 115.99414 | 1850 ft | 158 kts | 194° |
| 2026-04-29 02:48 | -31.85072 | 115.99112 | 1652 ft | 150 kts | 194° |
| 2026-04-29 02:48 | -31.86083 | 115.98818 | 1440 ft | 147 kts | 194° |
| 2026-04-29 02:48 | -31.87068 | 115.98532 | 1248 ft | 145 kts | 194° |
| 2026-04-29 02:49 | -31.88033 | 115.98251 | 1043 ft | 143 kts | 194° |
| 2026-04-29 02:49 | -31.88980 | 115.97976 | 855 ft | 142 kts | 194° |
| 2026-04-29 02:49 | -31.89948 | 115.97694 | 665 ft | 142 kts | 194° |
| 2026-04-29 02:49 | -31.90909 | 115.97414 | 476 ft | 142 kts | 195° |
| 2026-04-29 02:50 | -31.91879 | 115.97132 | 294 ft | 144 kts | 194° |
| 2026-04-29 02:50 | -31.92858 | 115.96846 | 114 ft | 145 kts | 195° |
| 2026-04-29 02:50 | -31.93793 | 115.96565 | 70 ft | 115 kts | 194° |
| 2026-04-29 02:50 | -31.94309 | 115.96420 | 64 ft | 47 kts | 193° |
| 2026-04-29 02:51 | -31.94444 | 115.96420 | 65 ft | 17 kts | 141° |
| 2026-04-29 02:51 | -31.94487 | 115.96560 | 68 ft | 19 kts | 99° |
| 2026-04-29 02:51 | -31.94503 | 115.96640 | 67 ft | 9 kts | 104° |
| 2026-04-29 02:51 | -31.94513 | 115.96685 | 66 ft | 0 kts | 106° |
| 2026-04-29 02:52 | -31.94514 | 115.96687 | 66 ft | 2 kts | 106° |
| 2026-04-29 02:52 | -31.94521 | 115.96718 | 59 ft | 5 kts | 106° |
| 2026-04-29 02:52 | -31.94532 | 115.96767 | 63 ft | 7 kts | 103° |
| 2026-04-29 02:52 | -31.94546 | 115.96833 | 68 ft | 9 kts | 103° |
| 2026-04-29 02:53 | -31.94561 | 115.96907 | 68 ft | 7 kts | 104° |
| 2026-04-29 02:53 | -31.94607 | 115.96932 | 64 ft | 9 kts | 182° |
| 2026-04-29 02:53 | -31.94635 | 115.96989 | 62 ft | 7 kts | 105° |
| 2026-04-29 02:53 | -31.94636 | 115.96993 | 59 ft | 0 kts | 105° |